Etusivu
METAR-TAF:

METAR-TAF

Lentoasemat :

Tozeur, Tunisia

Leveyspiiri: 33-55N, Pituuspiiri: 008-06E, korkeus merenpinnasta: 87 m

Tämänhetkinen sää

Tämä raportti tehtiin 36 minuuttia sitten, kello 19.00 UTC
Tuuli 6 kn lännestä/lounaasta
Lämpötila 13°C
Kosteus 62%
Ilmanpaine 1023 hPa
Näkyvyys 10 km tai enemmän
ei pilviä alle 1500 m:ssä eikä cumulonimbus-pilviä

METAR: DTTZ 241900Z 25006KT CAVOK 13/06 Q1023

Aika: 20:36 (19:36 UTC)

Sääennuste

Tämä raportti tehtiin 2 tuntia ja 36 minuuttia sitten, kello 17.00 UTC
Ennuste voimassa 24. päivästä klo 18 UTC - 25. päivään klo 18 UTC
Tuuli 5 kn lännestä/luoteesta
Näkyvyys 10 km tai enemmän
ei pilviä alle 1500 m:ssä eikä cumulonimbus-pilviä
Tulossa
25. päivästä klo 01 UTC - 25. päivään klo 03 UTC
Tuuli 3 kn eri suunnista

TAF: DTTZ 241700Z 2418/2518 29005KT CAVOK BECMG 2501/2503 VRB03KT

Säähavainnot ja -ennusteet yli 4000 lentoasemalta (METAR- ja TAF-raportit).

Käytössä olevat sääasemat on merkitty karttaan keltaisilla ja punaisilla pisteillä.

Aseta hiiri pisteen päälle nähdäksesi sääaseman nimen.

Klikkaa sitten nähdäksesi säähavainnot ja -ennusteet.

Kartan vaihtaminen: klikkaa mustalla rastilla varustettuja vihreitä pisteitä, niin voit zoomata sisään; viivalla varustettua vihreää pistettä, niin voit zoomata ulos tai vihreitä nuolia, niin pääset viereisille kartoille.


METAR-TAF: